PWSweather.com
Personal Weather Stations
Station Observations
BANEKERE1
AntwerpenBE

AntwerpenBE

Lat: 51.2809101, Lon: 4.4202713

Elevation: 40

Station Type:

http://www.akker.be

Latest ConditionsUpdated 6:10:45 AM GMT+01:01 Tuesday, Sep 27, 2016
Currently Today's Max Today's Min Today's Average
Temperature 45.3°F7.4°C 50.9°F10.5°C 45.3°F7.4°C 47.9°F8.8°C
Dew Point 43.1°F6.2°C 47.7°F8.7°C 43.1°F6.2°C 45.3°F7.4°C
Winds Calm Calm Calm SWCalm SW - Calm Calm
Wind Gusts -- 1.2 mph1.9 kmh - -
Humidity 92% 92% 89% 91%
Pressure 30.30 in1026.1 mb 30.30 in1026.1 mb 30.28 in1025.4 mb -
Hour Temp Dew Point Humidity Winds Wind Gusts Pressure Precip Precip Rate Daily Precip Total
06:10 AM 45.3°F7.4°C 43.1°F6.2°C 92% Calm Calm -- 30.30 in1026.1 mb - 0.00 in0.0 mm 0.00 in0.0 mm
06:00 AM 45.3°F7.4°C 43.1°F6.2°C 92% Calm Calm -- 30.30 in1026.1 mb - 0.00 in0.0 mm 0.00 in0.0 mm
05:50 AM 45.4°F7.4°C 43.2°F6.2°C 92% Calm Calm -- 30.30 in1026.1 mb - 0.00 in0.0 mm 0.00 in0.0 mm
05:40 AM 45.5°F7.5°C 43.3°F6.3°C 92% Calm Calm -- 30.30 in1026.1 mb - 0.00 in0.0 mm 0.00 in0.0 mm
05:30 AM 45.6°F7.6°C 43.4°F6.3°C 92% Calm Calm -- 30.30 in1026.1 mb - 0.00 in0.0 mm 0.00 in0.0 mm
05:20 AM 45.8°F7.7°C 43.6°F6.4°C 92% Calm Calm -- 30.30 in1026.1 mb - 0.00 in0.0 mm 0.00 in0.0 mm
05:10 AM 45.9°F7.7°C 43.4°F6.3°C 91% Calm Calm -- 30.30 in1026.1 mb - 0.00 in0.0 mm 0.00 in0.0 mm
05:00 AM 46.1°F7.8°C 43.6°F6.4°C 91% Calm Calm -- 30.30 in1026.1 mb - 0.00 in0.0 mm 0.00 in0.0 mm
04:50 AM 46.2°F7.9°C 44.0°F6.7°C 92% Calm Calm -- 30.29 in1025.7 mb - 0.00 in0.0 mm 0.00 in0.0 mm
04:40 AM 46.3°F7.9°C 44.1°F6.7°C 92% Calm Calm -- 30.29 in1025.7 mb - 0.00 in0.0 mm 0.00 in0.0 mm
04:30 AM 46.5°F8.1°C 44.0°F6.7°C 91% Calm Calm -- 30.29 in1025.7 mb - 0.00 in0.0 mm 0.00 in0.0 mm
04:20 AM 46.7°F8.2°C 44.2°F6.8°C 91% Calm Calm -- 30.29 in1025.7 mb - 0.00 in0.0 mm 0.00 in0.0 mm
04:10 AM 46.8°F8.2°C 44.3°F6.8°C 91% Calm Calm -- 30.29 in1025.7 mb - 0.00 in0.0 mm 0.00 in0.0 mm
04:00 AM 46.9°F8.3°C 44.4°F6.9°C 91% Calm Calm -- 30.29 in1025.7 mb - 0.00 in0.0 mm 0.00 in0.0 mm
03:50 AM 47.0°F8.3°C 44.6°F7.0°C 91% Calm Calm -- 30.29 in1025.7 mb - 0.00 in0.0 mm 0.00 in0.0 mm
03:40 AM 47.2°F8.4°C 44.7°F7.1°C 91% Calm Calm -- 30.29 in1025.7 mb - 0.00 in0.0 mm 0.00 in0.0 mm
03:30 AM 47.4°F8.6°C 44.9°F7.2°C 91% Calm Calm -- 30.29 in1025.7 mb - 0.00 in0.0 mm 0.00 in0.0 mm
03:20 AM 47.6°F8.7°C 45.1°F7.3°C 91% Calm Calm -- 30.29 in1025.7 mb - 0.00 in0.0 mm 0.00 in0.0 mm
03:10 AM 47.7°F8.7°C 45.2°F7.3°C 91% Calm Calm -- 30.29 in1025.7 mb - 0.00 in0.0 mm 0.00 in0.0 mm
03:00 AM 47.9°F8.8°C 45.4°F7.4°C 91% Calm Calm -- 30.28 in1025.4 mb - 0.00 in0.0 mm 0.00 in0.0 mm
02:50 AM 48.1°F8.9°C 45.6°F7.6°C 91% Calm Calm 1.2 mph1.9 kmh 30.28 in1025.4 mb - 0.00 in0.0 mm 0.00 in0.0 mm
02:40 AM 48.3°F9.1°C 45.8°F7.7°C 91% Calm Calm -- 30.28 in1025.4 mb - 0.00 in0.0 mm 0.00 in0.0 mm
02:30 AM 48.5°F9.2°C 46.0°F7.8°C 91% Calm Calm -- 30.29 in1025.7 mb - 0.00 in0.0 mm 0.00 in0.0 mm
02:20 AM 48.7°F9.3°C 46.2°F7.9°C 91% Calm Calm -- 30.29 in1025.7 mb - 0.00 in0.0 mm 0.00 in0.0 mm
02:10 AM 48.9°F9.4°C 46.4°F8.0°C 91% Calm Calm -- 30.29 in1025.7 mb - 0.00 in0.0 mm 0.00 in0.0 mm
02:00 AM 49.1°F9.5°C 46.6°F8.1°C 91% Calm Calm -- 30.29 in1025.7 mb - 0.00 in0.0 mm 0.00 in0.0 mm
01:50 AM 49.2°F9.6°C 46.7°F8.2°C 91% Calm Calm -- 30.28 in1025.4 mb - 0.00 in0.0 mm 0.00 in0.0 mm
01:40 AM 49.3°F9.6°C 46.8°F8.2°C 91% Calm Calm -- 30.28 in1025.4 mb - 0.00 in0.0 mm 0.00 in0.0 mm
01:30 AM 49.5°F9.7°C 47.0°F8.3°C 91% Calm Calm -- 30.28 in1025.4 mb - 0.00 in0.0 mm 0.00 in0.0 mm
01:20 AM 49.6°F9.8°C 47.0°F8.3°C 91% Calm Calm -- 30.28 in1025.4 mb - 0.00 in0.0 mm 0.00 in0.0 mm
01:10 AM 49.5°F9.7°C 46.7°F8.2°C 90% Calm Calm -- 30.28 in1025.4 mb - 0.00 in0.0 mm 0.00 in0.0 mm
01:00 AM 49.6°F9.8°C 46.7°F8.2°C 90% Calm Calm -- 30.28 in1025.4 mb - 0.00 in0.0 mm 0.00 in0.0 mm
12:50 AM 49.7°F9.8°C 46.9°F8.3°C 90% Calm Calm -- 30.28 in1025.4 mb - 0.00 in0.0 mm 0.00 in0.0 mm
12:40 AM 49.9°F9.9°C 47.1°F8.4°C 90% Calm Calm -- 30.28 in1025.4 mb - 0.00 in0.0 mm 0.00 in0.0 mm
12:30 AM 50.2°F10.1°C 47.4°F8.6°C 90% Calm Calm -- 30.28 in1025.4 mb - 0.00 in0.0 mm 0.00 in0.0 mm
12:20 AM 50.4°F10.2°C 47.3°F8.5°C 89% Calm Calm -- 30.28 in1025.4 mb - 0.00 in0.0 mm 0.00 in0.0 mm
12:10 AM 50.6°F10.3°C 47.5°F8.6°C 89% Calm Calm -- 30.28 in1025.4 mb - 0.00 in0.0 mm 0.00 in0.0 mm
12:00 AM 50.9°F10.5°C 47.7°F8.7°C 89% Calm Calm -- 30.28 in1025.4 mb - 0.00 in0.0 mm 0.00 in0.0 mm